createdAt,value
2023-08-27T00:02:06.782Z,10.25
2023-08-27T00:04:34.111Z,10.07
2023-08-27T00:07:01.266Z,9.88
2023-08-27T00:09:28.709Z,9.50
2023-08-27T00:11:56.166Z,9.00
2023-08-27T00:14:23.655Z,10.02
2023-08-27T00:16:51.398Z,10.50
2023-08-27T00:19:18.536Z,10.02
2023-08-27T00:21:46.015Z,9.00
2023-08-27T00:24:13.456Z,9.48
2023-08-27T00:26:40.950Z,8.95
2023-08-27T00:29:08.243Z,8.77
2023-08-27T00:31:35.712Z,8.30
2023-08-27T00:34:03.128Z,9.23
2023-08-27T00:36:31.527Z,8.48
2023-08-27T00:38:58.818Z,9.02
2023-08-27T00:41:26.302Z,9.20
2023-08-27T00:43:53.368Z,8.23
2023-08-27T00:46:20.615Z,10.05
2023-08-27T00:48:48.938Z,9.13
2023-08-27T00:51:17.350Z,9.68
2023-08-27T00:53:44.551Z,7.95
2023-08-27T00:56:13.040Z,8.63
2023-08-27T00:58:40.750Z,7.97
2023-08-27T01:01:07.826Z,7.57
2023-08-27T01:03:35.143Z,9.07
2023-08-27T01:06:02.760Z,7.93
2023-08-27T01:08:41.496Z,9.15
2023-08-27T01:11:11.641Z,8.27
2023-08-27T01:14:03.451Z,8.88
2023-08-27T01:16:31.327Z,9.63
2023-08-27T01:19:01.496Z,8.25
2023-08-27T01:21:28.662Z,8.23
2023-08-27T01:23:56.302Z,8.50
2023-08-27T01:26:46.037Z,8.00
2023-08-27T01:29:43.006Z,8.23
2023-08-27T01:32:35.103Z,8.35
2023-08-27T01:35:04.709Z,8.32
2023-08-27T01:37:32.246Z,8.07
2023-08-27T01:40:00.590Z,8.52
2023-08-27T01:42:28.101Z,8.70
2023-08-27T01:44:57.506Z,7.75
2023-08-27T01:47:25.333Z,8.00
2023-08-27T01:49:53.157Z,8.43
2023-08-27T01:52:20.270Z,8.77
2023-08-27T01:54:47.593Z,8.25
2023-08-27T01:57:14.851Z,8.40
2023-08-27T01:59:41.805Z,7.70
2023-08-27T02:02:09.339Z,8.43
2023-08-27T02:04:36.326Z,9.10
2023-08-27T02:07:03.390Z,8.35
2023-08-27T02:09:30.614Z,7.97
2023-08-27T02:11:58.274Z,9.32
2023-08-27T02:14:25.617Z,8.82
2023-08-27T02:16:52.600Z,9.10
2023-08-27T02:19:19.750Z,10.20
2023-08-27T02:21:46.806Z,8.55
2023-08-27T02:24:13.965Z,9.43
2023-08-27T02:26:41.633Z,8.95
2023-08-27T02:29:09.070Z,8.15
2023-08-27T02:31:37.170Z,8.77
2023-08-27T02:34:04.603Z,9.13
2023-08-27T02:36:32.163Z,8.38
2023-08-27T02:39:00.045Z,8.60
2023-08-27T02:41:27.597Z,9.20
2023-08-27T02:43:54.680Z,8.25
2023-08-27T02:46:22.748Z,8.27
2023-08-27T02:48:50.180Z,8.77
2023-08-27T02:51:18.250Z,9.65
2023-08-27T02:53:45.451Z,8.27
2023-08-27T02:56:12.627Z,9.15
2023-08-27T02:58:40.143Z,8.68
2023-08-27T03:01:07.143Z,9.25
2023-08-27T03:03:34.458Z,9.52
2023-08-27T03:06:02.443Z,8.98
2023-08-27T03:08:29.295Z,9.55
2023-08-27T03:10:56.836Z,8.68
2023-08-27T03:13:23.816Z,7.75
2023-08-27T03:15:51.096Z,8.05
2023-08-27T03:18:18.445Z,9.00
2023-08-27T03:20:45.890Z,9.13
2023-08-27T03:23:13.003Z,8.82
2023-08-27T03:25:40.382Z,8.20
2023-08-27T03:28:07.714Z,8.70
2023-08-27T03:30:34.724Z,8.93
2023-08-27T03:33:02.719Z,8.70
2023-08-27T03:35:29.959Z,9.75
2023-08-27T03:37:57.496Z,9.10
2023-08-27T03:40:26.508Z,9.20
2023-08-27T03:42:53.716Z,8.88
2023-08-27T03:45:21.449Z,8.65
2023-08-27T03:47:48.644Z,10.07
2023-08-27T03:50:15.750Z,9.88
2023-08-27T03:52:43.271Z,10.05
2023-08-27T03:55:10.744Z,9.00
2023-08-27T03:57:39.378Z,9.85
2023-08-27T04:00:07.329Z,9.35
2023-08-27T04:02:34.815Z,9.48
2023-08-27T04:05:06.372Z,9.50
2023-08-27T04:07:33.243Z,8.98
2023-08-27T04:10:00.816Z,9.65
2023-08-27T04:12:29.747Z,8.65
2023-08-27T04:14:56.882Z,8.85
2023-08-27T04:17:23.910Z,8.90
2023-08-27T04:19:51.466Z,9.15
2023-08-27T04:22:18.976Z,10.07
2023-08-27T04:24:46.408Z,9.27
2023-08-27T04:27:13.905Z,10.93
2023-08-27T04:29:40.983Z,9.95
2023-08-27T04:32:08.939Z,9.75
2023-08-27T04:34:36.094Z,9.75
2023-08-27T04:37:04.920Z,10.15
2023-08-27T04:39:32.293Z,9.75
2023-08-27T04:41:59.799Z,10.80
2023-08-27T04:44:27.974Z,10.50
2023-08-27T04:46:58.567Z,10.57
2023-08-27T04:49:26.172Z,10.73
2023-08-27T04:51:53.629Z,9.45
2023-08-27T04:54:20.687Z,10.30
2023-08-27T04:56:48.783Z,9.93
2023-08-27T04:59:15.737Z,9.63
2023-08-27T05:01:43.027Z,10.38
2023-08-27T05:04:10.322Z,10.43
2023-08-27T05:06:37.648Z,10.27
2023-08-27T05:09:04.706Z,10.52
2023-08-27T05:11:31.808Z,10.65
2023-08-27T05:13:58.949Z,10.98
2023-08-27T05:16:26.098Z,11.52
2023-08-27T05:18:54.051Z,10.55
2023-08-27T05:21:21.281Z,11.93
2023-08-27T05:23:49.413Z,11.85
2023-08-27T05:26:16.574Z,11.52
2023-08-27T05:28:44.633Z,11.93
2023-08-27T05:31:11.812Z,10.40
2023-08-27T05:33:39.353Z,11.88
2023-08-27T05:36:06.761Z,11.73
2023-08-27T05:38:33.840Z,11.45
2023-08-27T05:41:00.994Z,11.77
2023-08-27T05:43:28.177Z,11.60
2023-08-27T05:45:56.410Z,13.18
2023-08-27T05:48:23.475Z,12.82
2023-08-27T05:50:51.482Z,11.60
2023-08-27T05:53:18.708Z,13.45
2023-08-27T05:55:45.720Z,11.82
2023-08-27T05:58:13.048Z,12.05
2023-08-27T06:00:40.462Z,11.95
2023-08-27T06:03:07.914Z,12.98
2023-08-27T06:05:34.987Z,11.55
2023-08-27T06:08:04.964Z,10.65
2023-08-27T06:10:33.070Z,12.02
2023-08-27T06:13:02.879Z,11.88
2023-08-27T06:15:33.335Z,11.23
2023-08-27T06:18:04.271Z,11.98
2023-08-27T06:20:32.111Z,11.45
2023-08-27T06:22:59.808Z,11.45
2023-08-27T06:25:26.808Z,11.65
2023-08-27T06:27:57.382Z,10.02
2023-08-27T06:30:25.189Z,10.80
2023-08-27T06:32:52.671Z,9.00
2023-08-27T06:35:19.613Z,10.07
2023-08-27T06:37:47.182Z,9.63
2023-08-27T06:40:15.165Z,8.70
2023-08-27T06:42:42.676Z,9.00
2023-08-27T06:45:11.176Z,8.07
2023-08-27T06:47:38.393Z,8.60
2023-08-27T06:50:05.828Z,9.02
2023-08-27T06:52:33.349Z,7.78
2023-08-27T06:55:02.331Z,7.70
2023-08-27T06:57:29.589Z,7.47
2023-08-27T06:59:57.054Z,7.80
2023-08-27T07:02:27.578Z,7.93
2023-08-27T07:04:56.842Z,7.60
2023-08-27T07:07:24.758Z,7.00
2023-08-27T07:09:52.145Z,7.82
2023-08-27T07:12:22.277Z,6.60
2023-08-27T07:14:49.884Z,6.15
2023-08-27T07:17:17.393Z,5.50
2023-08-27T07:19:44.272Z,6.57
2023-08-27T07:22:11.582Z,4.65
2023-08-27T07:24:38.941Z,3.92
2023-08-27T07:27:06.251Z,4.03
2023-08-27T07:29:33.296Z,4.53
2023-08-27T07:32:00.511Z,5.03
2023-08-27T07:34:27.955Z,4.85
2023-08-27T07:36:55.865Z,3.85
2023-08-27T07:39:23.332Z,4.28
2023-08-27T07:41:51.052Z,4.95
2023-08-27T07:44:18.739Z,4.53
2023-08-27T07:46:46.064Z,4.68
2023-08-27T07:49:13.283Z,4.55
2023-08-27T07:51:40.705Z,4.72
2023-08-27T07:54:08.064Z,5.18
2023-08-27T07:56:35.842Z,4.75
2023-08-27T07:59:03.280Z,4.75
2023-08-27T08:01:30.291Z,3.92
2023-08-27T08:03:57.580Z,4.25
2023-08-27T08:06:24.680Z,4.95
2023-08-27T08:08:51.836Z,4.78
2023-08-27T08:11:19.137Z,4.55
2023-08-27T08:13:47.388Z,3.95
2023-08-27T08:16:14.610Z,5.07
2023-08-27T08:18:41.899Z,5.13
2023-08-27T08:21:09.227Z,4.65
2023-08-27T08:23:36.624Z,4.13
2023-08-27T08:26:06.197Z,4.18
2023-08-27T08:28:33.682Z,4.70
2023-08-27T08:31:00.800Z,4.55
2023-08-27T08:33:27.777Z,4.60
2023-08-27T08:35:55.333Z,4.97
2023-08-27T08:38:22.682Z,4.70
2023-08-27T08:40:59.469Z,4.55
2023-08-27T08:43:37.231Z,4.50
2023-08-27T08:46:06.284Z,4.25
2023-08-27T08:48:43.800Z,4.85
2023-08-27T08:51:13.274Z,4.32
2023-08-27T08:53:51.333Z,4.45
2023-08-27T08:56:29.754Z,4.38
2023-08-27T08:58:59.818Z,3.85
2023-08-27T09:01:27.151Z,4.28
2023-08-27T09:03:54.868Z,4.03
2023-08-27T09:06:23.211Z,4.57
2023-08-27T09:08:52.038Z,4.40
2023-08-27T09:11:20.881Z,3.70
2023-08-27T09:13:48.248Z,4.50
2023-08-27T09:16:15.746Z,4.13
2023-08-27T09:18:43.091Z,4.30
2023-08-27T09:21:10.933Z,4.70
2023-08-27T09:23:41.255Z,3.95
2023-08-27T09:26:08.682Z,4.30
2023-08-27T09:28:36.547Z,4.00
2023-08-27T09:31:03.836Z,3.45
2023-08-27T09:33:42.685Z,4.05
2023-08-27T09:36:10.894Z,4.38
2023-08-27T09:38:40.302Z,4.70
2023-08-27T09:41:18.061Z,4.22
2023-08-27T09:43:57.410Z,3.85
2023-08-27T09:46:25.027Z,3.97
2023-08-27T09:49:24.122Z,4.80
2023-08-27T09:51:57.916Z,4.32
2023-08-27T09:54:30.517Z,4.35
2023-08-27T09:57:00.890Z,4.53
2023-08-27T09:59:28.712Z,4.13
2023-08-27T10:01:56.520Z,4.40
2023-08-27T10:04:24.395Z,4.03
2023-08-27T10:06:51.382Z,4.40
2023-08-27T10:09:18.663Z,4.05
2023-08-27T10:11:47.164Z,4.47
2023-08-27T10:14:16.341Z,4.05
2023-08-27T10:16:43.908Z,4.85
2023-08-27T10:19:11.637Z,4.70
2023-08-27T10:21:39.056Z,4.80
2023-08-27T10:24:07.622Z,4.80
2023-08-27T10:26:34.848Z,3.88
2023-08-27T10:29:04.602Z,4.43
2023-08-27T10:31:32.744Z,4.63
2023-08-27T10:34:00.253Z,3.97
2023-08-27T10:36:32.641Z,4.88
2023-08-27T10:39:04.770Z,4.45
2023-08-27T10:41:35.573Z,4.07
2023-08-27T10:44:03.198Z,4.40
2023-08-27T10:46:30.266Z,4.55
2023-08-27T10:48:57.916Z,5.05
2023-08-27T10:51:34.440Z,4.20
2023-08-27T10:54:02.665Z,4.75
2023-08-27T10:56:30.658Z,5.15
2023-08-27T10:58:59.690Z,4.75
2023-08-27T11:01:27.196Z,4.05
2023-08-27T11:03:59.305Z,4.15
2023-08-27T11:06:52.739Z,4.80
2023-08-27T11:09:26.888Z,4.63
2023-08-27T11:11:56.648Z,4.15
2023-08-27T11:14:25.655Z,4.90
2023-08-27T11:17:06.993Z,4.38
2023-08-27T11:19:36.511Z,4.60
2023-08-27T11:22:09.405Z,4.43
2023-08-27T11:24:44.436Z,4.40
2023-08-27T11:27:13.117Z,4.22
2023-08-27T11:29:41.577Z,5.00
2023-08-27T11:32:13.118Z,4.90
2023-08-27T11:34:42.658Z,4.57
2023-08-27T11:37:10.343Z,4.60
2023-08-27T11:39:38.752Z,4.13
2023-08-27T11:42:13.892Z,5.00
2023-08-27T11:44:52.390Z,4.35
2023-08-27T11:47:23.676Z,4.25
2023-08-27T11:49:57.757Z,4.53
2023-08-27T11:52:25.423Z,5.05
2023-08-27T11:54:53.938Z,5.15
2023-08-27T11:57:21.860Z,4.82
2023-08-27T11:59:50.066Z,4.70
2023-08-27T12:02:17.921Z,4.95
2023-08-27T12:04:45.878Z,4.70
2023-08-27T12:07:14.032Z,4.57
2023-08-27T12:09:42.712Z,4.75
2023-08-27T12:12:09.964Z,4.72
2023-08-27T12:14:41.320Z,4.47
2023-08-27T12:17:10.550Z,4.80
2023-08-27T12:19:41.263Z,4.50
2023-08-27T12:22:09.416Z,4.55
2023-08-27T12:24:44.726Z,4.88
2023-08-27T12:27:16.339Z,4.20
2023-08-27T12:29:45.127Z,4.15
2023-08-27T12:32:17.609Z,5.22
2023-08-27T12:34:48.955Z,4.80
2023-08-27T12:37:18.605Z,4.57
2023-08-27T12:39:47.249Z,4.55
2023-08-27T12:42:19.668Z,4.40
2023-08-27T12:44:50.715Z,4.60
2023-08-27T12:47:18.491Z,4.13
2023-08-27T12:49:49.787Z,4.53
2023-08-27T12:52:17.401Z,4.85
2023-08-27T12:54:48.383Z,4.90
2023-08-27T12:57:15.678Z,4.70
2023-08-27T12:59:44.363Z,4.97
2023-08-27T13:02:11.617Z,4.78
2023-08-27T13:04:39.037Z,4.40
2023-08-27T13:07:07.648Z,4.82
2023-08-27T13:09:34.911Z,4.50
2023-08-27T13:12:03.588Z,4.72
2023-08-27T13:14:30.846Z,4.90
2023-08-27T13:16:58.145Z,4.53
2023-08-27T13:22:16.553Z,4.85
2023-08-27T13:24:44.336Z,4.25
2023-08-27T13:27:13.576Z,5.38
2023-08-27T13:29:40.702Z,4.40
2023-08-27T13:32:08.125Z,4.25
2023-08-27T13:34:35.439Z,4.80
2023-08-27T13:37:02.792Z,4.20
2023-08-27T13:39:30.436Z,5.13
2023-08-27T13:42:03.570Z,4.63
2023-08-27T13:44:30.882Z,4.30
2023-08-27T13:46:58.223Z,5.13
2023-08-27T13:49:27.352Z,4.65
2023-08-27T13:51:55.099Z,4.97
2023-08-27T13:54:22.425Z,5.22
2023-08-27T13:56:49.779Z,5.00
2023-08-27T13:59:17.219Z,5.45
2023-08-27T14:02:10.461Z,4.75
2023-08-27T14:04:38.186Z,5.93
2023-08-27T14:07:05.414Z,5.05
2023-08-27T14:09:35.341Z,5.50
2023-08-27T14:12:02.700Z,5.90
2023-08-27T14:14:30.068Z,5.72
2023-08-27T14:16:57.349Z,6.28
2023-08-27T14:19:24.194Z,6.88
2023-08-27T14:21:51.479Z,7.22
2023-08-27T14:24:18.719Z,6.65
2023-08-27T14:26:45.946Z,6.53
2023-08-27T14:29:12.905Z,8.00
2023-08-27T14:31:40.215Z,8.90
2023-08-27T14:34:07.936Z,7.72
2023-08-27T14:36:35.557Z,8.40
2023-08-27T14:39:03.639Z,8.05
2023-08-27T14:41:31.195Z,7.78
2023-08-27T14:43:58.515Z,7.97
2023-08-27T14:46:25.840Z,8.15
2023-08-27T14:48:53.109Z,7.95
2023-08-27T14:51:20.631Z,8.48
2023-08-27T14:53:47.876Z,8.93
2023-08-27T14:56:15.465Z,9.88
2023-08-27T14:58:49.014Z,9.27
2023-08-27T15:01:16.381Z,8.50
2023-08-27T15:03:43.644Z,9.07
2023-08-27T15:06:11.057Z,8.38
2023-08-27T15:08:38.424Z,7.95
2023-08-27T15:11:05.642Z,9.20
2023-08-27T15:13:33.337Z,8.70
2023-08-27T15:16:00.987Z,8.27
2023-08-27T15:18:28.621Z,9.40
2023-08-27T15:20:55.988Z,8.52
2023-08-27T15:23:23.384Z,8.73
2023-08-27T15:25:50.823Z,8.73
2023-08-27T15:28:18.403Z,8.95
2023-08-27T15:30:45.695Z,9.45
2023-08-27T15:33:12.973Z,9.25
2023-08-27T15:35:40.830Z,8.00
2023-08-27T15:38:08.165Z,9.93
2023-08-27T15:40:36.089Z,8.60
2023-08-27T15:43:31.883Z,7.70
2023-08-27T15:45:59.402Z,8.32
2023-08-27T15:48:26.506Z,7.95
2023-08-27T15:50:54.119Z,8.18
2023-08-27T15:53:21.646Z,8.68
2023-08-27T15:55:49.382Z,8.88
2023-08-27T15:58:16.948Z,9.20
2023-08-27T16:00:45.528Z,8.35
2023-08-27T16:03:13.193Z,8.65
2023-08-27T16:05:40.977Z,9.00
2023-08-27T16:08:08.453Z,8.52
2023-08-27T16:10:38.919Z,8.25
2023-08-27T16:13:06.337Z,8.68
2023-08-27T16:15:33.852Z,9.07
2023-08-27T16:18:02.786Z,8.48
2023-08-27T16:20:30.426Z,8.90
2023-08-27T16:23:00.034Z,9.73
2023-08-27T16:25:27.456Z,8.90
2023-08-27T16:27:54.611Z,8.85
2023-08-27T16:30:21.910Z,9.82
2023-08-27T16:32:51.904Z,10.38
2023-08-27T16:35:20.702Z,10.43
2023-08-27T16:37:47.806Z,9.82
2023-08-27T16:40:15.059Z,10.10
2023-08-27T16:42:42.095Z,9.15
2023-08-27T16:45:09.578Z,9.13
2023-08-27T16:47:36.782Z,10.20
2023-08-27T16:50:04.305Z,9.52
2023-08-27T16:52:31.925Z,9.48
2023-08-27T16:54:59.671Z,9.80
2023-08-27T16:57:26.883Z,9.80
2023-08-27T16:59:54.011Z,10.40
2023-08-27T17:02:21.491Z,10.18
2023-08-27T17:04:48.969Z,10.55
2023-08-27T17:07:16.450Z,10.35
2023-08-27T17:09:43.897Z,11.55
2023-08-27T17:12:11.106Z,10.80
2023-08-27T17:14:38.551Z,11.30
2023-08-27T17:17:05.973Z,11.23
2023-08-27T17:19:33.217Z,9.88
2023-08-27T17:22:00.663Z,12.27
2023-08-27T17:24:27.802Z,11.10
2023-08-27T17:26:55.328Z,11.77
2023-08-27T17:29:22.516Z,10.57
2023-08-27T17:31:49.414Z,10.13
2023-08-27T17:34:16.492Z,10.07
2023-08-27T17:36:43.867Z,10.93
2023-08-27T17:39:12.392Z,10.65
2023-08-27T17:41:50.313Z,10.38
2023-08-27T17:44:17.743Z,10.50
2023-08-27T17:46:45.190Z,10.43
2023-08-27T17:49:15.187Z,10.88
2023-08-27T17:51:42.547Z,10.10
2023-08-27T17:54:10.961Z,9.55
2023-08-27T17:56:38.078Z,10.25
2023-08-27T17:59:05.644Z,9.60
2023-08-27T18:01:32.757Z,9.52
2023-08-27T18:04:00.360Z,9.85
2023-08-27T18:06:27.798Z,9.63
2023-08-27T18:08:55.920Z,10.25
2023-08-27T18:11:23.659Z,9.13
2023-08-27T18:13:52.186Z,9.65
2023-08-27T18:16:19.929Z,10.05
2023-08-27T18:18:47.515Z,10.00
2023-08-27T18:21:14.617Z,10.02
2023-08-27T18:23:41.952Z,9.60
2023-08-27T18:26:09.605Z,9.25
2023-08-27T18:28:37.469Z,9.77
2023-08-27T18:31:06.127Z,8.55
2023-08-27T18:33:33.753Z,8.57
2023-08-27T18:36:01.013Z,9.43
2023-08-27T18:38:28.386Z,8.63
2023-08-27T18:40:56.205Z,10.18
2023-08-27T18:43:23.666Z,8.75
2023-08-27T18:45:50.665Z,7.82
2023-08-27T18:48:18.114Z,7.93
2023-08-27T18:50:45.517Z,7.30
2023-08-27T18:53:12.485Z,7.35
2023-08-27T18:55:39.905Z,7.30
2023-08-27T18:58:07.332Z,6.65
2023-08-27T19:00:34.200Z,7.43
2023-08-27T19:03:01.494Z,6.88
2023-08-27T19:05:28.744Z,6.57
2023-08-27T19:07:56.715Z,6.45
2023-08-27T19:10:25.507Z,6.93
2023-08-27T19:12:54.266Z,6.18
2023-08-27T19:15:21.398Z,7.15
2023-08-27T19:17:49.052Z,6.18
2023-08-27T19:20:16.455Z,6.80
2023-08-27T19:22:44.930Z,6.55
2023-08-27T19:25:12.269Z,6.25
2023-08-27T19:27:39.696Z,6.40
2023-08-27T19:30:07.514Z,6.68
2023-08-27T19:32:34.836Z,7.00
2023-08-27T19:35:03.302Z,6.60
2023-08-27T19:37:30.546Z,5.75
2023-08-27T19:39:57.767Z,5.75
2023-08-27T19:42:24.643Z,6.55
2023-08-27T19:44:52.560Z,6.20
2023-08-27T19:47:20.155Z,6.25
2023-08-27T19:49:47.388Z,5.53
2023-08-27T19:52:14.263Z,6.47
2023-08-27T19:54:41.516Z,5.57
2023-08-27T19:57:08.409Z,6.40
2023-08-27T19:59:35.242Z,5.75
2023-08-27T20:02:02.905Z,6.82
2023-08-27T20:04:30.322Z,7.10
2023-08-27T20:06:57.669Z,6.38
2023-08-27T20:09:26.137Z,7.03
2023-08-27T20:11:53.995Z,7.07
2023-08-27T20:14:21.331Z,7.40
2023-08-27T20:16:49.078Z,6.43
2023-08-27T20:19:19.805Z,7.53
2023-08-27T20:21:47.505Z,8.30
2023-08-27T20:24:14.372Z,7.18
2023-08-27T20:26:41.679Z,7.85
2023-08-27T20:29:09.265Z,8.15
2023-08-27T20:31:36.680Z,7.57
2023-08-27T20:34:03.935Z,7.93
2023-08-27T20:36:30.885Z,7.50
2023-08-27T20:38:58.955Z,8.13
2023-08-27T20:41:27.093Z,7.50
2023-08-27T20:43:57.634Z,9.35
2023-08-27T20:46:30.218Z,9.00
2023-08-27T20:48:57.482Z,9.55
2023-08-27T20:51:25.496Z,8.88
2023-08-27T20:53:54.562Z,9.65
2023-08-27T20:56:21.755Z,9.35
2023-08-27T20:58:48.769Z,9.75
2023-08-27T21:01:23.657Z,9.88
2023-08-27T21:03:51.657Z,10.13
2023-08-27T21:06:25.807Z,9.32
2023-08-27T21:08:52.736Z,10.93
2023-08-27T21:11:20.009Z,11.23
2023-08-27T21:13:47.033Z,11.35
2023-08-27T21:16:13.936Z,10.45
2023-08-27T21:18:41.348Z,11.32
2023-08-27T21:21:08.857Z,11.88
2023-08-27T21:23:35.959Z,11.02
2023-08-27T21:26:03.040Z,11.27
2023-08-27T21:28:31.436Z,12.32
2023-08-27T21:31:12.751Z,12.90
2023-08-27T21:33:49.723Z,13.27
2023-08-27T21:36:16.830Z,13.48
2023-08-27T21:38:43.968Z,14.15
2023-08-27T21:41:11.047Z,14.15
2023-08-27T21:43:38.458Z,14.35
2023-08-27T21:46:05.603Z,13.60
2023-08-27T21:48:32.657Z,14.15
2023-08-27T21:51:01.472Z,13.15
2023-08-27T21:53:32.941Z,13.65
2023-08-27T21:56:00.969Z,14.07
2023-08-27T21:58:31.090Z,12.88
2023-08-27T22:01:13.601Z,12.15
2023-08-27T22:03:40.944Z,12.98
2023-08-27T22:06:09.397Z,12.38
2023-08-27T22:08:37.553Z,13.27
2023-08-27T22:11:06.043Z,12.18
2023-08-27T22:13:33.539Z,12.63
2023-08-27T22:16:00.743Z,12.25
2023-08-27T22:18:31.841Z,12.15
2023-08-27T22:21:00.759Z,12.32
2023-08-27T22:23:28.092Z,12.00
2023-08-27T22:25:56.010Z,11.75
2023-08-27T22:28:24.068Z,11.85
2023-08-27T22:30:51.204Z,11.52
2023-08-27T22:33:21.472Z,12.27
2023-08-27T22:35:48.624Z,11.95
2023-08-27T22:38:15.807Z,11.70
2023-08-27T22:40:42.901Z,12.23
2023-08-27T22:43:10.428Z,12.70
2023-08-27T22:45:48.304Z,12.02
2023-08-27T22:48:15.264Z,11.73
2023-08-27T22:50:42.718Z,12.07
2023-08-27T22:53:10.188Z,12.05
2023-08-27T22:55:40.935Z,11.02
2023-08-27T22:58:08.522Z,10.50
2023-08-27T23:00:36.798Z,9.45
2023-08-27T23:03:04.641Z,11.25
2023-08-27T23:05:31.997Z,12.30
2023-08-27T23:07:59.087Z,12.35
2023-08-27T23:10:26.256Z,14.68
2023-08-27T23:12:53.386Z,13.98
2023-08-27T23:15:20.906Z,13.85
2023-08-27T23:17:48.295Z,12.80
2023-08-27T23:20:15.397Z,15.82
2023-08-27T23:22:43.022Z,14.50
2023-08-27T23:25:11.116Z,14.82
2023-08-27T23:27:38.414Z,15.30
2023-08-27T23:30:07.138Z,15.02
2023-08-27T23:32:34.550Z,14.30
2023-08-27T23:35:03.409Z,14.98
2023-08-27T23:37:31.514Z,14.45
2023-08-27T23:39:58.589Z,14.65
2023-08-27T23:42:25.833Z,14.15
2023-08-27T23:45:00.855Z,14.88
2023-08-27T23:47:28.846Z,13.70
2023-08-27T23:49:55.882Z,13.63
2023-08-27T23:52:23.074Z,13.88
2023-08-27T23:54:51.167Z,14.20
2023-08-27T23:57:18.724Z,13.93
2023-08-27T23:59:47.019Z,11.75
